sensor_id;sensor_type;location;lat;lon;timestamp;P1;durP1;ratioP1;P2;durP2;ratioP2
64560;SDS011;50960;46.838;16.838;2024-01-10T00:00:29;31.02;;;24.80;;
64560;SDS011;50960;46.838;16.838;2024-01-10T00:02:56;28.65;;;23.55;;
64560;SDS011;50960;46.838;16.838;2024-01-10T00:05:22;29.65;;;24.20;;
64560;SDS011;50960;46.838;16.838;2024-01-10T00:07:48;30.15;;;23.48;;
64560;SDS011;50960;46.838;16.838;2024-01-10T00:10:15;33.30;;;24.33;;
64560;SDS011;50960;46.838;16.838;2024-01-10T00:12:41;29.75;;;24.02;;
64560;SDS011;50960;46.838;16.838;2024-01-10T00:15:10;28.15;;;23.38;;
64560;SDS011;50960;46.838;16.838;2024-01-10T00:17:36;31.45;;;23.90;;
64560;SDS011;50960;46.838;16.838;2024-01-10T00:20:03;30.15;;;23.63;;
64560;SDS011;50960;46.838;16.838;2024-01-10T00:22:29;30.02;;;24.00;;
64560;SDS011;50960;46.838;16.838;2024-01-10T00:24:56;32.60;;;23.73;;
64560;SDS011;50960;46.838;16.838;2024-01-10T00:27:22;30.70;;;24.15;;
64560;SDS011;50960;46.838;16.838;2024-01-10T00:29:48;32.28;;;24.45;;
64560;SDS011;50960;46.838;16.838;2024-01-10T00:32:17;29.52;;;23.67;;
64560;SDS011;50960;46.838;16.838;2024-01-10T00:34:43;32.25;;;24.42;;
64560;SDS011;50960;46.838;16.838;2024-01-10T00:37:09;30.58;;;24.42;;
64560;SDS011;50960;46.838;16.838;2024-01-10T00:39:36;32.10;;;24.30;;
64560;SDS011;50960;46.838;16.838;2024-01-10T00:42:02;31.25;;;24.50;;
64560;SDS011;50960;46.838;16.838;2024-01-10T00:44:29;30.88;;;23.38;;
64560;SDS011;50960;46.838;16.838;2024-01-10T00:46:55;30.02;;;23.67;;
64560;SDS011;50960;46.838;16.838;2024-01-10T00:49:21;30.98;;;24.27;;
64560;SDS011;50960;46.838;16.838;2024-01-10T00:51:47;29.60;;;23.48;;
64560;SDS011;50960;46.838;16.838;2024-01-10T00:54:15;29.50;;;23.85;;
64560;SDS011;50960;46.838;16.838;2024-01-10T00:56:42;31.35;;;24.13;;
64560;SDS011;50960;46.838;16.838;2024-01-10T00:59:08;30.77;;;24.65;;
64560;SDS011;50960;46.838;16.838;2024-01-10T01:01:34;30.42;;;23.23;;
64560;SDS011;50960;46.838;16.838;2024-01-10T01:04:00;29.33;;;23.17;;
64560;SDS011;50960;46.838;16.838;2024-01-10T01:06:27;29.13;;;23.40;;
64560;SDS011;50960;46.838;16.838;2024-01-10T01:08:53;29.25;;;23.70;;
64560;SDS011;50960;46.838;16.838;2024-01-10T01:11:19;29.88;;;23.52;;
64560;SDS011;50960;46.838;16.838;2024-01-10T01:13:46;28.95;;;23.48;;
64560;SDS011;50960;46.838;16.838;2024-01-10T01:16:15;31.77;;;23.92;;
64560;SDS011;50960;46.838;16.838;2024-01-10T01:18:41;32.70;;;24.17;;
64560;SDS011;50960;46.838;16.838;2024-01-10T01:21:11;31.10;;;24.10;;
64560;SDS011;50960;46.838;16.838;2024-01-10T01:23:37;30.45;;;23.80;;
64560;SDS011;50960;46.838;16.838;2024-01-10T01:26:04;31.08;;;24.88;;
64560;SDS011;50960;46.838;16.838;2024-01-10T01:28:30;30.83;;;24.75;;
64560;SDS011;50960;46.838;16.838;2024-01-10T01:30:57;31.88;;;24.80;;
64560;SDS011;50960;46.838;16.838;2024-01-10T01:33:23;31.67;;;24.30;;
64560;SDS011;50960;46.838;16.838;2024-01-10T01:35:50;30.77;;;24.80;;
64560;SDS011;50960;46.838;16.838;2024-01-10T01:38:16;34.22;;;25.23;;
64560;SDS011;50960;46.838;16.838;2024-01-10T01:40:42;31.02;;;24.30;;
64560;SDS011;50960;46.838;16.838;2024-01-10T01:43:19;29.90;;;24.20;;
64560;SDS011;50960;46.838;16.838;2024-01-10T01:45:50;29.10;;;23.75;;
64560;SDS011;50960;46.838;16.838;2024-01-10T01:48:19;29.40;;;23.98;;
64560;SDS011;50960;46.838;16.838;2024-01-10T01:50:47;33.60;;;25.13;;
64560;SDS011;50960;46.838;16.838;2024-01-10T01:53:17;30.95;;;24.23;;
64560;SDS011;50960;46.838;16.838;2024-01-10T01:55:44;32.40;;;25.00;;
64560;SDS011;50960;46.838;16.838;2024-01-10T01:58:11;29.90;;;23.88;;
64560;SDS011;50960;46.838;16.838;2024-01-10T02:00:38;30.50;;;24.55;;
64560;SDS011;50960;46.838;16.838;2024-01-10T02:03:05;30.17;;;24.70;;
64560;SDS011;50960;46.838;16.838;2024-01-10T02:05:34;31.50;;;24.63;;
64560;SDS011;50960;46.838;16.838;2024-01-10T02:08:00;28.80;;;24.02;;
64560;SDS011;50960;46.838;16.838;2024-01-10T02:10:26;31.90;;;25.23;;
64560;SDS011;50960;46.838;16.838;2024-01-10T02:12:53;31.70;;;24.88;;
64560;SDS011;50960;46.838;16.838;2024-01-10T02:15:19;28.58;;;23.20;;
64560;SDS011;50960;46.838;16.838;2024-01-10T02:17:46;30.45;;;24.23;;
64560;SDS011;50960;46.838;16.838;2024-01-10T02:20:13;31.30;;;25.00;;
64560;SDS011;50960;46.838;16.838;2024-01-10T02:22:42;33.17;;;24.85;;
64560;SDS011;50960;46.838;16.838;2024-01-10T02:25:12;31.35;;;24.27;;
64560;SDS011;50960;46.838;16.838;2024-01-10T02:27:39;32.22;;;25.05;;
64560;SDS011;50960;46.838;16.838;2024-01-10T02:30:06;32.05;;;24.38;;
64560;SDS011;50960;46.838;16.838;2024-01-10T02:32:34;28.75;;;23.42;;
64560;SDS011;50960;46.838;16.838;2024-01-10T02:35:02;30.15;;;24.60;;
64560;SDS011;50960;46.838;16.838;2024-01-10T02:37:29;32.15;;;24.15;;
64560;SDS011;50960;46.838;16.838;2024-01-10T02:39:55;31.70;;;24.80;;
64560;SDS011;50960;46.838;16.838;2024-01-10T02:42:21;28.88;;;23.83;;
64560;SDS011;50960;46.838;16.838;2024-01-10T02:44:47;29.27;;;24.33;;
64560;SDS011;50960;46.838;16.838;2024-01-10T02:47:14;32.65;;;25.02;;
64560;SDS011;50960;46.838;16.838;2024-01-10T02:49:41;30.77;;;23.95;;
64560;SDS011;50960;46.838;16.838;2024-01-10T02:52:07;30.55;;;24.85;;
64560;SDS011;50960;46.838;16.838;2024-01-10T02:54:33;32.08;;;24.33;;
64560;SDS011;50960;46.838;16.838;2024-01-10T02:57:00;32.17;;;24.08;;
64560;SDS011;50960;46.838;16.838;2024-01-10T02:59:26;30.65;;;24.45;;
64560;SDS011;50960;46.838;16.838;2024-01-10T03:01:52;32.42;;;24.35;;
64560;SDS011;50960;46.838;16.838;2024-01-10T03:04:19;29.83;;;23.58;;
64560;SDS011;50960;46.838;16.838;2024-01-10T03:06:45;28.20;;;23.92;;
64560;SDS011;50960;46.838;16.838;2024-01-10T03:09:11;29.90;;;23.83;;
64560;SDS011;50960;46.838;16.838;2024-01-10T03:11:37;29.85;;;23.45;;
64560;SDS011;50960;46.838;16.838;2024-01-10T03:14:07;30.55;;;23.73;;
64560;SDS011;50960;46.838;16.838;2024-01-10T03:16:34;28.70;;;23.10;;
64560;SDS011;50960;46.838;16.838;2024-01-10T03:19:04;28.80;;;23.23;;
64560;SDS011;50960;46.838;16.838;2024-01-10T03:21:30;30.75;;;24.35;;
64560;SDS011;50960;46.838;16.838;2024-01-10T03:23:57;30.60;;;24.15;;
64560;SDS011;50960;46.838;16.838;2024-01-10T03:26:25;32.75;;;24.15;;
64560;SDS011;50960;46.838;16.838;2024-01-10T03:28:52;29.17;;;23.58;;
64560;SDS011;50960;46.838;16.838;2024-01-10T03:31:18;31.92;;;25.40;;
64560;SDS011;50960;46.838;16.838;2024-01-10T03:33:45;32.15;;;24.33;;
64560;SDS011;50960;46.838;16.838;2024-01-10T03:36:13;30.77;;;24.02;;
64560;SDS011;50960;46.838;16.838;2024-01-10T03:38:41;30.38;;;24.63;;
64560;SDS011;50960;46.838;16.838;2024-01-10T03:41:08;28.83;;;24.05;;
64560;SDS011;50960;46.838;16.838;2024-01-10T03:43:42;30.52;;;23.27;;
64560;SDS011;50960;46.838;16.838;2024-01-10T03:46:09;30.67;;;24.90;;
64560;SDS011;50960;46.838;16.838;2024-01-10T03:48:36;31.63;;;25.15;;
64560;SDS011;50960;46.838;16.838;2024-01-10T03:51:04;30.73;;;24.42;;
64560;SDS011;50960;46.838;16.838;2024-01-10T03:53:30;29.27;;;23.92;;
64560;SDS011;50960;46.838;16.838;2024-01-10T03:55:56;31.77;;;24.55;;
64560;SDS011;50960;46.838;16.838;2024-01-10T03:58:23;32.75;;;26.05;;
64560;SDS011;50960;46.838;16.838;2024-01-10T04:00:49;31.85;;;24.83;;
64560;SDS011;50960;46.838;16.838;2024-01-10T04:03:15;31.92;;;25.52;;
64560;SDS011;50960;46.838;16.838;2024-01-10T04:05:42;32.42;;;25.33;;
64560;SDS011;50960;46.838;16.838;2024-01-10T04:08:08;35.10;;;27.20;;
64560;SDS011;50960;46.838;16.838;2024-01-10T04:10:34;35.67;;;26.25;;
64560;SDS011;50960;46.838;16.838;2024-01-10T04:13:01;35.47;;;26.48;;
64560;SDS011;50960;46.838;16.838;2024-01-10T04:15:27;31.63;;;25.65;;
64560;SDS011;50960;46.838;16.838;2024-01-10T04:17:53;30.77;;;24.98;;
64560;SDS011;50960;46.838;16.838;2024-01-10T04:20:20;32.22;;;25.98;;
64560;SDS011;50960;46.838;16.838;2024-01-10T04:22:51;32.60;;;26.65;;
64560;SDS011;50960;46.838;16.838;2024-01-10T04:25:17;31.48;;;25.98;;
64560;SDS011;50960;46.838;16.838;2024-01-10T04:27:43;30.35;;;25.05;;
64560;SDS011;50960;46.838;16.838;2024-01-10T04:30:10;32.20;;;25.65;;
64560;SDS011;50960;46.838;16.838;2024-01-10T04:32:37;30.55;;;25.08;;
64560;SDS011;50960;46.838;16.838;2024-01-10T04:35:03;35.10;;;27.17;;
64560;SDS011;50960;46.838;16.838;2024-01-10T04:37:31;33.30;;;26.60;;
64560;SDS011;50960;46.838;16.838;2024-01-10T04:39:58;32.17;;;25.48;;
64560;SDS011;50960;46.838;16.838;2024-01-10T04:42:24;32.60;;;25.80;;
64560;SDS011;50960;46.838;16.838;2024-01-10T04:44:51;32.38;;;25.73;;
64560;SDS011;50960;46.838;16.838;2024-01-10T04:47:18;34.10;;;25.75;;
64560;SDS011;50960;46.838;16.838;2024-01-10T04:49:44;31.60;;;24.70;;
64560;SDS011;50960;46.838;16.838;2024-01-10T04:52:10;33.42;;;25.35;;
64560;SDS011;50960;46.838;16.838;2024-01-10T04:54:38;29.25;;;24.58;;
64560;SDS011;50960;46.838;16.838;2024-01-10T04:57:04;32.70;;;25.95;;
64560;SDS011;50960;46.838;16.838;2024-01-10T04:59:30;33.45;;;25.75;;
64560;SDS011;50960;46.838;16.838;2024-01-10T05:01:57;31.25;;;25.23;;
64560;SDS011;50960;46.838;16.838;2024-01-10T05:04:23;31.30;;;25.13;;
64560;SDS011;50960;46.838;16.838;2024-01-10T05:06:49;32.13;;;25.10;;
64560;SDS011;50960;46.838;16.838;2024-01-10T05:09:16;32.15;;;25.42;;
64560;SDS011;50960;46.838;16.838;2024-01-10T05:11:46;33.67;;;26.83;;
64560;SDS011;50960;46.838;16.838;2024-01-10T05:14:13;32.70;;;25.60;;
64560;SDS011;50960;46.838;16.838;2024-01-10T05:16:40;33.92;;;25.88;;
64560;SDS011;50960;46.838;16.838;2024-01-10T05:19:06;33.00;;;26.05;;
64560;SDS011;50960;46.838;16.838;2024-01-10T05:21:32;31.40;;;25.25;;
64560;SDS011;50960;46.838;16.838;2024-01-10T05:23:59;32.33;;;25.80;;
64560;SDS011;50960;46.838;16.838;2024-01-10T05:26:26;31.90;;;25.38;;
64560;SDS011;50960;46.838;16.838;2024-01-10T05:28:52;29.85;;;24.92;;
64560;SDS011;50960;46.838;16.838;2024-01-10T05:31:18;32.20;;;25.85;;
64560;SDS011;50960;46.838;16.838;2024-01-10T05:33:45;31.85;;;25.05;;
64560;SDS011;50960;46.838;16.838;2024-01-10T05:36:11;31.38;;;24.83;;
64560;SDS011;50960;46.838;16.838;2024-01-10T05:38:38;30.42;;;25.80;;
64560;SDS011;50960;46.838;16.838;2024-01-10T05:41:05;32.15;;;25.77;;
64560;SDS011;50960;46.838;16.838;2024-01-10T05:43:32;31.85;;;25.30;;
64560;SDS011;50960;46.838;16.838;2024-01-10T05:45:59;31.33;;;26.15;;
64560;SDS011;50960;46.838;16.838;2024-01-10T05:48:26;31.55;;;25.23;;
64560;SDS011;50960;46.838;16.838;2024-01-10T05:50:52;31.42;;;25.38;;
64560;SDS011;50960;46.838;16.838;2024-01-10T05:53:19;31.35;;;25.25;;
64560;SDS011;50960;46.838;16.838;2024-01-10T05:55:45;30.42;;;25.15;;
64560;SDS011;50960;46.838;16.838;2024-01-10T05:58:11;33.10;;;25.63;;
64560;SDS011;50960;46.838;16.838;2024-01-10T06:00:38;33.42;;;26.33;;
64560;SDS011;50960;46.838;16.838;2024-01-10T06:03:04;33.58;;;25.60;;
64560;SDS011;50960;46.838;16.838;2024-01-10T06:05:30;33.65;;;26.55;;
64560;SDS011;50960;46.838;16.838;2024-01-10T06:07:57;33.95;;;26.95;;
64560;SDS011;50960;46.838;16.838;2024-01-10T06:10:23;33.60;;;26.40;;
64560;SDS011;50960;46.838;16.838;2024-01-10T06:12:49;32.42;;;26.73;;
64560;SDS011;50960;46.838;16.838;2024-01-10T06:15:16;34.00;;;27.38;;
64560;SDS011;50960;46.838;16.838;2024-01-10T06:17:42;33.20;;;26.77;;
64560;SDS011;50960;46.838;16.838;2024-01-10T06:20:09;36.25;;;28.30;;
64560;SDS011;50960;46.838;16.838;2024-01-10T06:22:35;37.13;;;28.17;;
64560;SDS011;50960;46.838;16.838;2024-01-10T06:25:02;39.10;;;29.20;;
64560;SDS011;50960;46.838;16.838;2024-01-10T06:27:29;51.10;;;37.95;;
64560;SDS011;50960;46.838;16.838;2024-01-10T06:29:56;42.10;;;29.27;;
64560;SDS011;50960;46.838;16.838;2024-01-10T06:32:23;37.42;;;28.83;;
64560;SDS011;50960;46.838;16.838;2024-01-10T06:34:49;37.78;;;28.58;;
64560;SDS011;50960;46.838;16.838;2024-01-10T06:37:16;34.75;;;27.65;;
64560;SDS011;50960;46.838;16.838;2024-01-10T06:39:42;37.88;;;28.55;;
64560;SDS011;50960;46.838;16.838;2024-01-10T06:42:09;39.42;;;28.80;;
64560;SDS011;50960;46.838;16.838;2024-01-10T06:44:37;40.60;;;28.50;;
64560;SDS011;50960;46.838;16.838;2024-01-10T06:47:04;39.15;;;28.92;;
64560;SDS011;50960;46.838;16.838;2024-01-10T06:49:30;42.67;;;29.67;;
64560;SDS011;50960;46.838;16.838;2024-01-10T06:51:57;40.75;;;28.33;;
64560;SDS011;50960;46.838;16.838;2024-01-10T06:54:26;38.65;;;26.83;;
64560;SDS011;50960;46.838;16.838;2024-01-10T06:56:52;40.70;;;28.33;;
64560;SDS011;50960;46.838;16.838;2024-01-10T06:59:19;41.40;;;28.77;;
64560;SDS011;50960;46.838;16.838;2024-01-10T07:01:45;38.45;;;26.75;;
64560;SDS011;50960;46.838;16.838;2024-01-10T07:04:17;36.33;;;26.60;;
64560;SDS011;50960;46.838;16.838;2024-01-10T07:06:43;40.20;;;26.60;;
64560;SDS011;50960;46.838;16.838;2024-01-10T07:09:10;38.88;;;26.42;;
64560;SDS011;50960;46.838;16.838;2024-01-10T07:11:36;39.80;;;25.90;;
64560;SDS011;50960;46.838;16.838;2024-01-10T07:14:03;39.28;;;26.38;;
64560;SDS011;50960;46.838;16.838;2024-01-10T07:16:31;38.70;;;26.45;;
64560;SDS011;50960;46.838;16.838;2024-01-10T07:19:02;53.42;;;33.58;;
64560;SDS011;50960;46.838;16.838;2024-01-10T07:21:29;79.75;;;47.33;;
64560;SDS011;50960;46.838;16.838;2024-01-10T07:23:56;65.97;;;43.85;;
64560;SDS011;50960;46.838;16.838;2024-01-10T07:26:22;69.32;;;41.25;;
64560;SDS011;50960;46.838;16.838;2024-01-10T07:28:49;60.92;;;37.58;;
64560;SDS011;50960;46.838;16.838;2024-01-10T07:31:15;58.80;;;37.40;;
64560;SDS011;50960;46.838;16.838;2024-01-10T07:33:42;60.53;;;38.47;;
64560;SDS011;50960;46.838;16.838;2024-01-10T07:36:09;62.30;;;39.58;;
64560;SDS011;50960;46.838;16.838;2024-01-10T07:38:35;62.40;;;40.05;;
64560;SDS011;50960;46.838;16.838;2024-01-10T07:41:02;70.35;;;42.65;;
64560;SDS011;50960;46.838;16.838;2024-01-10T07:43:29;65.78;;;42.55;;
64560;SDS011;50960;46.838;16.838;2024-01-10T07:45:56;68.72;;;41.13;;
64560;SDS011;50960;46.838;16.838;2024-01-10T07:48:22;69.00;;;41.03;;
64560;SDS011;50960;46.838;16.838;2024-01-10T07:50:50;59.53;;;36.38;;
64560;SDS011;50960;46.838;16.838;2024-01-10T07:53:16;58.47;;;37.00;;
64560;SDS011;50960;46.838;16.838;2024-01-10T07:55:43;53.03;;;34.72;;
64560;SDS011;50960;46.838;16.838;2024-01-10T07:58:09;55.17;;;34.60;;
64560;SDS011;50960;46.838;16.838;2024-01-10T08:00:36;57.05;;;35.20;;
64560;SDS011;50960;46.838;16.838;2024-01-10T08:03:02;52.40;;;33.90;;
64560;SDS011;50960;46.838;16.838;2024-01-10T08:05:29;51.20;;;34.05;;
64560;SDS011;50960;46.838;16.838;2024-01-10T08:07:55;52.55;;;33.13;;
64560;SDS011;50960;46.838;16.838;2024-01-10T08:10:23;54.33;;;33.60;;
64560;SDS011;50960;46.838;16.838;2024-01-10T08:12:50;56.53;;;36.10;;
64560;SDS011;50960;46.838;16.838;2024-01-10T08:15:18;55.85;;;36.90;;
64560;SDS011;50960;46.838;16.838;2024-01-10T08:17:45;60.45;;;38.35;;
64560;SDS011;50960;46.838;16.838;2024-01-10T08:20:12;55.67;;;35.80;;
64560;SDS011;50960;46.838;16.838;2024-01-10T08:22:40;54.38;;;34.08;;
64560;SDS011;50960;46.838;16.838;2024-01-10T08:25:09;52.08;;;33.88;;
64560;SDS011;50960;46.838;16.838;2024-01-10T08:27:35;52.28;;;34.25;;
64560;SDS011;50960;46.838;16.838;2024-01-10T08:30:02;53.50;;;36.83;;
64560;SDS011;50960;46.838;16.838;2024-01-10T08:32:30;57.97;;;37.30;;
64560;SDS011;50960;46.838;16.838;2024-01-10T08:34:57;56.58;;;36.63;;
64560;SDS011;50960;46.838;16.838;2024-01-10T08:37:23;57.13;;;37.10;;
64560;SDS011;50960;46.838;16.838;2024-01-10T08:39:50;57.17;;;36.95;;
64560;SDS011;50960;46.838;16.838;2024-01-10T08:42:16;55.53;;;38.00;;
64560;SDS011;50960;46.838;16.838;2024-01-10T08:44:43;63.17;;;39.88;;
64560;SDS011;50960;46.838;16.838;2024-01-10T08:47:10;59.85;;;39.55;;
64560;SDS011;50960;46.838;16.838;2024-01-10T08:49:36;61.70;;;39.75;;
64560;SDS011;50960;46.838;16.838;2024-01-10T08:52:04;62.20;;;40.88;;
64560;SDS011;50960;46.838;16.838;2024-01-10T08:54:30;60.92;;;40.45;;
64560;SDS011;50960;46.838;16.838;2024-01-10T08:56:57;63.67;;;40.88;;
64560;SDS011;50960;46.838;16.838;2024-01-10T08:59:24;61.92;;;40.00;;
64560;SDS011;50960;46.838;16.838;2024-01-10T09:01:53;61.70;;;40.22;;
64560;SDS011;50960;46.838;16.838;2024-01-10T09:04:19;62.22;;;40.30;;
64560;SDS011;50960;46.838;16.838;2024-01-10T09:06:47;71.90;;;45.45;;
64560;SDS011;50960;46.838;16.838;2024-01-10T09:09:13;68.53;;;45.00;;
64560;SDS011;50960;46.838;16.838;2024-01-10T09:11:40;67.13;;;46.38;;
64560;SDS011;50960;46.838;16.838;2024-01-10T09:14:07;71.25;;;46.97;;
64560;SDS011;50960;46.838;16.838;2024-01-10T09:16:35;70.25;;;46.45;;
64560;SDS011;50960;46.838;16.838;2024-01-10T09:19:01;73.63;;;47.00;;
64560;SDS011;50960;46.838;16.838;2024-01-10T09:21:28;73.70;;;47.83;;
64560;SDS011;50960;46.838;16.838;2024-01-10T09:23:54;72.30;;;45.92;;
64560;SDS011;50960;46.838;16.838;2024-01-10T09:26:22;71.88;;;46.65;;
64560;SDS011;50960;46.838;16.838;2024-01-10T09:28:49;68.63;;;44.70;;
64560;SDS011;50960;46.838;16.838;2024-01-10T09:31:15;67.38;;;43.90;;
64560;SDS011;50960;46.838;16.838;2024-01-10T09:33:42;64.70;;;43.00;;
64560;SDS011;50960;46.838;16.838;2024-01-10T09:36:08;64.82;;;42.78;;
64560;SDS011;50960;46.838;16.838;2024-01-10T09:38:35;70.13;;;44.17;;
64560;SDS011;50960;46.838;16.838;2024-01-10T09:41:05;67.35;;;43.58;;
64560;SDS011;50960;46.838;16.838;2024-01-10T09:43:32;68.57;;;44.35;;
64560;SDS011;50960;46.838;16.838;2024-01-10T09:46:01;62.33;;;42.72;;
64560;SDS011;50960;46.838;16.838;2024-01-10T09:48:29;61.42;;;42.70;;
64560;SDS011;50960;46.838;16.838;2024-01-10T09:50:56;61.13;;;41.55;;
64560;SDS011;50960;46.838;16.838;2024-01-10T09:53:23;60.60;;;42.28;;
64560;SDS011;50960;46.838;16.838;2024-01-10T09:55:50;57.97;;;41.10;;
64560;SDS011;50960;46.838;16.838;2024-01-10T09:58:17;59.10;;;41.35;;
64560;SDS011;50960;46.838;16.838;2024-01-10T10:00:43;56.88;;;39.15;;
64560;SDS011;50960;46.838;16.838;2024-01-10T10:03:10;55.65;;;39.65;;
64560;SDS011;50960;46.838;16.838;2024-01-10T10:05:38;48.35;;;34.60;;
64560;SDS011;50960;46.838;16.838;2024-01-10T10:08:06;42.92;;;31.35;;
64560;SDS011;50960;46.838;16.838;2024-01-10T10:10:35;45.40;;;31.27;;
64560;SDS011;50960;46.838;16.838;2024-01-10T10:13:02;42.75;;;29.98;;
64560;SDS011;50960;46.838;16.838;2024-01-10T10:15:28;36.17;;;27.60;;
64560;SDS011;50960;46.838;16.838;2024-01-10T10:17:55;37.78;;;28.38;;
64560;SDS011;50960;46.838;16.838;2024-01-10T10:20:22;32.10;;;24.40;;
64560;SDS011;50960;46.838;16.838;2024-01-10T10:25:35;34.05;;;25.40;;
64560;SDS011;50960;46.838;16.838;2024-01-10T10:28:04;30.83;;;23.63;;
64560;SDS011;50960;46.838;16.838;2024-01-10T10:30:31;29.55;;;22.63;;
64560;SDS011;50960;46.838;16.838;2024-01-10T10:32:58;28.02;;;22.95;;
64560;SDS011;50960;46.838;16.838;2024-01-10T10:35:25;26.98;;;21.30;;
64560;SDS011;50960;46.838;16.838;2024-01-10T10:37:52;26.60;;;20.58;;
64560;SDS011;50960;46.838;16.838;2024-01-10T10:40:20;22.08;;;18.65;;
64560;SDS011;50960;46.838;16.838;2024-01-10T10:42:47;21.92;;;19.08;;
64560;SDS011;50960;46.838;16.838;2024-01-10T10:45:14;21.50;;;18.05;;
64560;SDS011;50960;46.838;16.838;2024-01-10T10:47:45;22.05;;;17.08;;
64560;SDS011;50960;46.838;16.838;2024-01-10T10:50:22;21.58;;;17.25;;
64560;SDS011;50960;46.838;16.838;2024-01-10T10:52:49;18.77;;;16.20;;
64560;SDS011;50960;46.838;16.838;2024-01-10T10:55:17;20.48;;;16.73;;
64560;SDS011;50960;46.838;16.838;2024-01-10T10:57:47;20.35;;;16.80;;
64560;SDS011;50960;46.838;16.838;2024-01-10T11:00:14;18.35;;;15.43;;
64560;SDS011;50960;46.838;16.838;2024-01-10T11:02:41;17.88;;;15.27;;
64560;SDS011;50960;46.838;16.838;2024-01-10T11:05:11;19.83;;;15.52;;
64560;SDS011;50960;46.838;16.838;2024-01-10T11:07:38;17.80;;;14.30;;
64560;SDS011;50960;46.838;16.838;2024-01-10T11:10:06;22.25;;;16.63;;
64560;SDS011;50960;46.838;16.838;2024-01-10T11:20:51;23.40;;;17.92;;
64560;SDS011;50960;46.838;16.838;2024-01-10T11:23:29;20.83;;;17.63;;
64560;SDS011;50960;46.838;16.838;2024-01-10T11:25:58;23.23;;;17.63;;
64560;SDS011;50960;46.838;16.838;2024-01-10T11:28:25;21.77;;;16.95;;
64560;SDS011;50960;46.838;16.838;2024-01-10T11:30:55;22.65;;;18.05;;
64560;SDS011;50960;46.838;16.838;2024-01-10T11:33:22;21.98;;;17.52;;
64560;SDS011;50960;46.838;16.838;2024-01-10T11:38:57;23.48;;;19.50;;
64560;SDS011;50960;46.838;16.838;2024-01-10T11:41:26;20.80;;;18.20;;
64560;SDS011;50960;46.838;16.838;2024-01-10T11:46:49;22.17;;;17.92;;
64560;SDS011;50960;46.838;16.838;2024-01-10T11:49:16;20.38;;;17.65;;
64560;SDS011;50960;46.838;16.838;2024-01-10T11:51:44;20.25;;;16.30;;
64560;SDS011;50960;46.838;16.838;2024-01-10T11:54:11;23.02;;;16.92;;
64560;SDS011;50960;46.838;16.838;2024-01-10T11:56:39;20.30;;;16.50;;
64560;SDS011;50960;46.838;16.838;2024-01-10T11:59:06;19.17;;;16.75;;
64560;SDS011;50960;46.838;16.838;2024-01-10T12:01:37;17.90;;;14.10;;
64560;SDS011;50960;46.838;16.838;2024-01-10T12:04:04;14.23;;;12.65;;
64560;SDS011;50960;46.838;16.838;2024-01-10T12:06:31;13.13;;;11.73;;
64560;SDS011;50960;46.838;16.838;2024-01-10T12:08:58;13.27;;;11.70;;
64560;SDS011;50960;46.838;16.838;2024-01-10T12:11:24;13.52;;;12.13;;
64560;SDS011;50960;46.838;16.838;2024-01-10T12:13:52;15.75;;;13.02;;
64560;SDS011;50960;46.838;16.838;2024-01-10T12:16:18;15.23;;;13.60;;
64560;SDS011;50960;46.838;16.838;2024-01-10T12:18:45;14.55;;;11.98;;
64560;SDS011;50960;46.838;16.838;2024-01-10T12:21:11;15.25;;;13.25;;
64560;SDS011;50960;46.838;16.838;2024-01-10T12:23:38;14.82;;;13.32;;
64560;SDS011;50960;46.838;16.838;2024-01-10T12:26:09;16.05;;;13.68;;
64560;SDS011;50960;46.838;16.838;2024-01-10T12:28:38;16.58;;;12.80;;
64560;SDS011;50960;46.838;16.838;2024-01-10T12:31:05;13.40;;;11.23;;
64560;SDS011;50960;46.838;16.838;2024-01-10T12:33:37;10.05;;;9.02;;
64560;SDS011;50960;46.838;16.838;2024-01-10T12:36:07;10.80;;;9.30;;
64560;SDS011;50960;46.838;16.838;2024-01-10T12:38:38;10.15;;;9.15;;
64560;SDS011;50960;46.838;16.838;2024-01-10T12:41:05;9.82;;;8.10;;
64560;SDS011;50960;46.838;16.838;2024-01-10T12:43:34;10.57;;;9.48;;
64560;SDS011;50960;46.838;16.838;2024-01-10T12:46:07;11.18;;;9.98;;
64560;SDS011;50960;46.838;16.838;2024-01-10T12:48:36;11.88;;;10.52;;
64560;SDS011;50960;46.838;16.838;2024-01-10T12:51:03;12.23;;;10.93;;
64560;SDS011;50960;46.838;16.838;2024-01-10T12:53:34;11.52;;;10.32;;
64560;SDS011;50960;46.838;16.838;2024-01-10T12:56:01;11.27;;;10.07;;
64560;SDS011;50960;46.838;16.838;2024-01-10T12:58:28;11.88;;;10.13;;
64560;SDS011;50960;46.838;16.838;2024-01-10T13:00:55;10.52;;;9.48;;
64560;SDS011;50960;46.838;16.838;2024-01-10T13:03:22;8.98;;;8.05;;
64560;SDS011;50960;46.838;16.838;2024-01-10T13:05:49;9.75;;;8.75;;
64560;SDS011;50960;46.838;16.838;2024-01-10T13:08:16;10.68;;;9.57;;
64560;SDS011;50960;46.838;16.838;2024-01-10T13:10:42;14.98;;;12.82;;
64560;SDS011;50960;46.838;16.838;2024-01-10T13:13:09;13.77;;;11.60;;
64560;SDS011;50960;46.838;16.838;2024-01-10T13:15:35;11.60;;;10.27;;
64560;SDS011;50960;46.838;16.838;2024-01-10T13:18:02;11.68;;;9.73;;
64560;SDS011;50960;46.838;16.838;2024-01-10T13:20:28;11.05;;;9.90;;
64560;SDS011;50960;46.838;16.838;2024-01-10T13:22:55;11.18;;;10.00;;
64560;SDS011;50960;46.838;16.838;2024-01-10T13:25:21;12.88;;;11.35;;
64560;SDS011;50960;46.838;16.838;2024-01-10T13:27:49;13.30;;;11.90;;
64560;SDS011;50960;46.838;16.838;2024-01-10T13:30:16;13.00;;;11.60;;
64560;SDS011;50960;46.838;16.838;2024-01-10T13:32:43;12.82;;;9.95;;
64560;SDS011;50960;46.838;16.838;2024-01-10T13:35:10;11.50;;;10.30;;
64560;SDS011;50960;46.838;16.838;2024-01-10T13:37:37;12.60;;;11.05;;
64560;SDS011;50960;46.838;16.838;2024-01-10T13:40:03;12.90;;;10.77;;
64560;SDS011;50960;46.838;16.838;2024-01-10T13:42:33;12.68;;;10.82;;
64560;SDS011;50960;46.838;16.838;2024-01-10T13:44:59;11.20;;;9.75;;
64560;SDS011;50960;46.838;16.838;2024-01-10T13:47:26;13.60;;;11.20;;
64560;SDS011;50960;46.838;16.838;2024-01-10T13:49:53;11.77;;;10.63;;
64560;SDS011;50960;46.838;16.838;2024-01-10T13:52:19;12.32;;;11.02;;
64560;SDS011;50960;46.838;16.838;2024-01-10T13:54:46;11.77;;;10.52;;
64560;SDS011;50960;46.838;16.838;2024-01-10T13:57:12;11.30;;;10.10;;
64560;SDS011;50960;46.838;16.838;2024-01-10T13:59:39;11.60;;;9.40;;
64560;SDS011;50960;46.838;16.838;2024-01-10T14:02:06;11.50;;;10.25;;
64560;SDS011;50960;46.838;16.838;2024-01-10T14:04:33;12.40;;;11.20;;
64560;SDS011;50960;46.838;16.838;2024-01-10T14:07:00;10.90;;;9.80;;
64560;SDS011;50960;46.838;16.838;2024-01-10T14:09:26;11.10;;;9.90;;
64560;SDS011;50960;46.838;16.838;2024-01-10T14:11:53;12.25;;;10.45;;
64560;SDS011;50960;46.838;16.838;2024-01-10T14:14:19;10.02;;;8.98;;
64560;SDS011;50960;46.838;16.838;2024-01-10T14:16:46;10.85;;;9.75;;
64560;SDS011;50960;46.838;16.838;2024-01-10T14:19:12;10.07;;;9.07;;
64560;SDS011;50960;46.838;16.838;2024-01-10T14:21:39;11.63;;;10.27;;
64560;SDS011;50960;46.838;16.838;2024-01-10T14:24:05;9.20;;;8.30;;
64560;SDS011;50960;46.838;16.838;2024-01-10T14:26:32;9.38;;;8.48;;